Time,TemperatureF,DewpointF,PressureIn,WindDirection,WindDirectionDegrees,WindSpeedMPH,WindSpeedGustMPH,Humidity,HourlyPrecipIn,Conditions,Clouds,dailyrainin,SoftwareType,DateUTC
2013-02-13 00:00:00,39.2,33.2,30.27,ENE,68,0.0,0.0,79,0.00,,---,0.00,VWS V14.01,2013-02-13 08:00:00,
2013-02-13 00:05:00,39.0,33.1,30.27,ENE,68,0.0,0.0,79,0.00,,---,0.00,VWS V14.01,2013-02-13 08:05:00,
2013-02-13 00:10:00,38.8,32.6,30.30,ENE,68,0.0,0.0,78,0.00,,---,0.00,VWS V14.01,2013-02-13 08:10:00,
2013-02-13 00:15:00,38.8,33.2,30.30,ENE,68,0.0,0.0,80,0.00,,---,0.00,VWS V14.01,2013-02-13 08:15:00,
2013-02-13 00:20:00,38.8,32.6,30.30,ENE,68,0.0,0.0,78,0.00,,---,0.00,VWS V14.01,2013-02-13 08:20:00,
2013-02-13 00:25:00,38.7,32.7,30.30,ENE,68,0.0,0.0,79,0.00,,---,0.00,VWS V14.01,2013-02-13 08:25:00,
2013-02-13 00:30:00,38.7,33.0,30.30,ENE,68,0.0,0.0,80,0.00,,---,0.00,VWS V14.01,2013-02-13 08:30:00,
2013-02-13 00:35:00,38.7,33.0,30.30,ENE,68,0.0,0.0,80,0.00,,---,0.00,VWS V14.01,2013-02-13 08:35:00,
2013-02-13 00:40:00,38.5,32.5,30.30,ENE,68,0.0,0.0,79,0.00,,---,0.00,VWS V14.01,2013-02-13 08:40:00,
2013-02-13 00:45:00,38.3,32.4,30.30,ENE,68,0.0,0.0,79,0.00,,---,0.00,VWS V14.01,2013-02-13 08:45:00,
2013-02-13 00:50:00,38.1,32.5,30.30,ENE,68,0.0,0.0,80,0.00,,---,0.00,VWS V14.01,2013-02-13 08:50:00,
2013-02-13 00:56:00,38.1,32.8,30.30,ENE,68,0.0,0.0,81,0.00,,---,0.00,VWS V14.01,2013-02-13 08:56:00,
2013-02-13 01:01:00,37.9,32.3,30.30,ENE,68,0.0,0.0,80,0.00,,---,0.00,VWS V14.01,2013-02-13 09:01:00,
2013-02-13 01:06:00,37.9,32.6,30.30,ENE,68,0.0,0.0,81,0.00,,---,0.00,VWS V14.01,2013-02-13 09:06:00,
2013-02-13 01:11:00,37.9,32.6,30.30,ENE,68,0.0,0.0,81,0.00,,---,0.00,VWS V14.01,2013-02-13 09:11:00,
2013-02-13 01:16:00,37.8,32.8,30.30,ENE,68,0.0,0.0,82,0.00,,---,0.00,VWS V14.01,2013-02-13 09:16:00,
2013-02-13 01:21:00,37.9,32.6,30.30,ENE,68,0.0,0.0,81,0.00,,---,0.00,VWS V14.01,2013-02-13 09:21:00,
2013-02-13 01:26:00,37.9,32.6,30.30,ENE,68,0.0,0.0,81,0.00,,---,0.00,VWS V14.01,2013-02-13 09:26:00,
2013-02-13 01:31:00,38.1,33.1,30.30,ENE,68,0.0,0.0,82,0.00,,---,0.00,VWS V14.01,2013-02-13 09:31:00,
2013-02-13 01:36:00,37.9,33.0,30.30,ENE,68,0.0,0.0,82,0.00,,---,0.00,VWS V14.01,2013-02-13 09:36:00,
2013-02-13 01:42:00,37.8,32.8,30.30,ENE,68,0.0,0.0,82,0.00,,---,0.00,VWS V14.01,2013-02-13 09:42:00,
2013-02-13 01:47:00,37.6,32.3,30.30,ENE,68,0.0,0.0,81,0.00,,---,0.00,VWS V14.01,2013-02-13 09:47:00,
2013-02-13 01:52:00,37.4,32.7,30.30,ENE,68,0.0,0.0,83,0.00,,---,0.00,VWS V14.01,2013-02-13 09:52:00,
2013-02-13 01:57:00,37.4,32.4,30.30,ENE,68,0.0,0.0,82,0.00,,---,0.00,VWS V14.01,2013-02-13 09:57:00,
2013-02-13 02:02:00,37.0,32.1,30.30,ENE,68,0.0,0.0,82,0.00,,---,0.00,VWS V14.01,2013-02-13 10:02:00,
2013-02-13 02:07:00,37.0,32.1,30.30,ENE,68,0.0,0.0,82,0.00,,---,0.00,VWS V14.01,2013-02-13 10:07:00,
2013-02-13 02:12:00,37.0,32.4,30.30,ENE,68,0.0,0.0,83,0.00,,---,0.00,VWS V14.01,2013-02-13 10:12:00,
2013-02-13 02:17:00,36.9,32.2,30.30,ENE,68,0.0,0.0,83,0.00,,---,0.00,VWS V14.01,2013-02-13 10:17:00,
2013-02-13 02:22:00,36.9,32.2,30.30,ENE,68,0.0,0.0,83,0.00,,---,0.00,VWS V14.01,2013-02-13 10:22:00,
2013-02-13 02:27:00,36.7,32.0,30.30,ENE,68,0.0,0.0,83,0.00,,---,0.00,VWS V14.01,2013-02-13 10:27:00,
2013-02-13 02:32:00,36.7,32.3,30.30,ENE,68,0.0,0.0,84,0.00,,---,0.00,VWS V14.01,2013-02-13 10:32:00,
2013-02-13 02:37:00,36.5,32.1,30.30,ENE,68,0.0,0.0,84,0.00,,---,0.00,VWS V14.01,2013-02-13 10:37:00,
2013-02-13 02:42:00,36.3,32.0,30.30,ENE,68,0.0,0.0,84,0.00,,---,0.00,VWS V14.01,2013-02-13 10:42:00,
2013-02-13 02:47:00,36.1,32.1,30.30,ENE,68,0.0,0.0,85,0.00,,---,0.00,VWS V14.01,2013-02-13 10:47:00,
2013-02-13 02:52:00,36.1,32.1,30.30,ENE,68,0.0,0.0,85,0.00,,---,0.00,VWS V14.01,2013-02-13 10:52:00,
2013-02-13 02:57:00,36.1,32.1,30.30,ENE,68,0.0,0.0,85,0.00,,---,0.00,VWS V14.01,2013-02-13 10:57:00,
2013-02-13 03:02:00,35.8,31.7,30.30,ENE,68,0.0,0.0,85,0.00,,---,0.00,VWS V14.01,2013-02-13 11:02:00,
2013-02-13 03:07:00,35.8,31.7,30.30,ENE,68,0.0,0.0,85,0.00,,---,0.00,VWS V14.01,2013-02-13 11:07:00,
2013-02-13 03:12:00,35.6,31.5,30.30,ENE,68,0.0,0.0,85,0.00,,---,0.00,VWS V14.01,2013-02-13 11:12:00,
2013-02-13 03:17:00,35.6,31.8,30.30,ENE,68,0.0,0.0,86,0.00,,---,0.00,VWS V14.01,2013-02-13 11:17:00,
2013-02-13 03:22:00,35.4,31.7,30.30,ENE,68,0.0,0.0,86,0.00,,---,0.00,VWS V14.01,2013-02-13 11:22:00,
2013-02-13 03:27:00,35.4,31.7,30.27,ENE,68,0.0,0.0,86,0.00,,---,0.00,VWS V14.01,2013-02-13 11:27:00,
2013-02-13 03:32:00,35.4,31.7,30.27,ENE,68,0.0,0.0,86,0.00,,---,0.00,VWS V14.01,2013-02-13 11:32:00,
2013-02-13 03:37:00,35.4,31.7,30.27,ENE,68,0.0,0.0,86,0.00,,---,0.00,VWS V14.01,2013-02-13 11:37:00,
2013-02-13 09:16:00,51.4,40.5,30.24,South,180,1.6,1.6,66,0.00,,---,0.00,VWS V14.01,2013-02-13 17:16:00,
2013-02-13 09:21:00,52.9,40.2,30.24,ESE,112,0.0,1.1,62,0.00,,---,0.00,VWS V14.01,2013-02-13 17:21:00,
2013-02-13 09:26:00,54.1,40.1,30.27,East,90,0.0,0.0,59,0.00,,---,0.00,VWS V14.01,2013-02-13 17:26:00,
2013-02-13 09:31:00,55.6,41.9,30.27,ENE,68,0.0,0.0,60,0.00,,---,0.00,VWS V14.01,2013-02-13 17:31:00,
2013-02-13 09:36:00,55.6,39.2,30.27,NNE,22,0.0,0.0,54,0.00,,---,0.00,VWS V14.01,2013-02-13 17:36:00,
2013-02-13 09:42:00,56.5,40.0,30.27,NNE,22,0.0,0.0,54,0.00,,---,0.00,VWS V14.01,2013-02-13 17:42:00,
2013-02-13 10:36:00,61.5,36.3,30.27,South,180,3.1,3.1,39,0.00,,---,0.00,VWS V14.01,2013-02-13 18:36:00,
2013-02-13 10:41:00,61.7,35.9,30.27,NNW,338,3.4,3.6,38,0.00,,---,0.00,VWS V14.01,2013-02-13 18:41:00,
2013-02-13 10:46:00,62.4,37.2,30.27,WSW,248,3.1,3.1,39,0.00,,---,0.00,VWS V14.01,2013-02-13 18:46:00,
2013-02-13 10:51:00,63.0,36.3,30.27,SSW,202,1.6,2.0,37,0.00,,---,0.00,VWS V14.01,2013-02-13 18:51:00,
2013-02-13 10:56:00,63.5,36.8,30.27,SSE,158,1.6,2.7,37,0.00,,---,0.00,VWS V14.01,2013-02-13 18:56:00,
2013-02-13 11:01:00,64.0,37.3,30.27,ESE,112,0.9,0.9,37,0.00,,---,0.00,VWS V14.01,2013-02-13 19:01:00,
2013-02-13 11:06:00,64.0,37.3,30.27,SE,135,0.0,1.1,37,0.00,,---,0.00,VWS V14.01,2013-02-13 19:06:00,
2013-02-13 11:11:00,64.6,36.3,30.27,North,0,2.7,2.7,35,0.00,,---,0.00,VWS V14.01,2013-02-13 19:11:00,
2013-02-13 11:16:00,64.8,36.5,30.27,NE,45,2.0,2.2,35,0.00,,---,0.00,VWS V14.01,2013-02-13 19:16:00,
2013-02-13 11:21:00,64.9,35.9,30.27,NNE,22,4.0,4.0,34,0.00,,---,0.00,VWS V14.01,2013-02-13 19:21:00,
2013-02-13 11:26:00,65.7,37.3,30.24,West,270,0.9,0.9,35,0.00,,---,0.00,VWS V14.01,2013-02-13 19:26:00,
2013-02-13 11:31:00,66.0,36.9,30.24,SSE,158,1.1,1.6,34,0.00,,---,0.00,VWS V14.01,2013-02-13 19:31:00,
2013-02-13 11:36:00,65.3,36.2,30.24,South,180,2.9,3.4,34,0.00,,---,0.00,VWS V14.01,2013-02-13 19:36:00,
2013-02-13 11:41:00,66.6,37.3,30.24,ESE,112,2.0,2.0,34,0.00,,---,0.00,VWS V14.01,2013-02-13 19:41:00,
2013-02-13 11:46:00,66.6,37.3,30.24,North,0,2.7,3.1,34,0.00,,---,0.00,VWS V14.01,2013-02-13 19:46:00,
2013-02-13 11:51:00,66.4,37.2,30.24,South,180,2.9,4.3,34,0.00,,---,0.00,VWS V14.01,2013-02-13 19:51:00,
2013-02-13 11:56:00,66.9,37.7,30.21,SSE,158,0.0,0.0,34,0.00,,---,0.00,VWS V14.01,2013-02-13 19:56:00,
2013-02-13 12:01:00,67.3,37.2,30.21,WSW,248,1.3,2.5,33,0.00,,---,0.00,VWS V14.01,2013-02-13 20:01:00,
2013-02-13 12:06:00,67.5,37.4,30.21,SSE,158,0.9,2.5,33,0.00,,---,0.00,VWS V14.01,2013-02-13 20:06:00,
2013-02-13 12:11:00,67.3,37.2,30.21,NNW,338,2.5,2.9,33,0.00,,---,0.00,VWS V14.01,2013-02-13 20:11:00,
2013-02-13 12:16:00,68.0,37.8,30.21,North,0,1.6,2.0,33,0.00,,---,0.00,VWS V14.01,2013-02-13 20:16:00,
2013-02-13 12:22:00,68.5,38.3,30.21,SSW,202,1.6,2.2,33,0.00,,---,0.00,VWS V14.01,2013-02-13 20:22:00,
2013-02-13 12:27:00,68.4,37.4,30.18,North,0,2.9,4.3,32,0.00,,---,0.00,VWS V14.01,2013-02-13 20:27:00,
2013-02-13 12:32:00,68.9,37.8,30.18,South,180,3.6,3.6,32,0.00,,---,0.00,VWS V14.01,2013-02-13 20:32:00,
2013-02-13 12:37:00,68.2,37.2,30.18,SSW,202,0.0,2.0,32,0.00,,---,0.00,VWS V14.01,2013-02-13 20:37:00,
2013-02-13 12:42:00,68.9,37.8,30.21,NNW,338,4.9,4.9,32,0.00,,---,0.00,VWS V14.01,2013-02-13 20:42:00,
2013-02-13 12:47:00,67.6,36.8,30.21,NNE,22,2.5,2.7,32,0.00,,---,0.00,VWS V14.01,2013-02-13 20:47:00,
2013-02-13 12:52:00,68.0,37.1,30.21,NNE,22,0.0,0.0,32,0.00,,---,0.00,VWS V14.01,2013-02-13 20:52:00,
2013-02-13 12:57:00,68.5,37.5,30.21,WNW,292,2.9,2.9,32,0.00,,---,0.00,VWS V14.01,2013-02-13 20:57:00,
2013-02-13 13:02:00,68.5,37.5,30.21,South,180,3.4,3.4,32,0.00,,---,0.00,VWS V14.01,2013-02-13 21:02:00,
2013-02-13 13:07:00,69.3,38.2,30.21,ESE,112,0.0,0.0,32,0.00,,---,0.00,VWS V14.01,2013-02-13 21:07:00,
2013-02-13 13:12:00,69.8,38.6,30.18,East,90,2.7,2.7,32,0.00,,---,0.00,VWS V14.01,2013-02-13 21:12:00,
2013-02-13 13:17:00,69.8,37.8,30.18,NNE,22,1.1,1.1,31,0.00,,---,0.00,VWS V14.01,2013-02-13 21:17:00,
2013-02-13 13:22:00,70.5,39.3,30.18,WSW,248,1.6,1.6,32,0.00,,---,0.00,VWS V14.01,2013-02-13 21:22:00,
2013-02-13 13:27:00,70.7,39.4,30.18,SW,225,0.9,0.9,32,0.00,,---,0.00,VWS V14.01,2013-02-13 21:27:00,
2013-02-13 13:32:00,70.5,37.6,30.18,NNW,338,2.5,4.7,30,0.00,,---,0.00,VWS V14.01,2013-02-13 21:32:00,
2013-02-13 13:37:00,69.4,36.7,30.18,SE,135,2.5,2.5,30,0.00,,---,0.00,VWS V14.01,2013-02-13 21:37:00,
2013-02-13 13:42:00,70.3,37.5,30.18,SSW,202,0.9,1.3,30,0.00,,---,0.00,VWS V14.01,2013-02-13 21:42:00,
2013-02-13 13:47:00,70.5,36.8,30.18,SE,135,2.5,2.5,29,0.00,,---,0.00,VWS V14.01,2013-02-13 21:47:00,
2013-02-13 13:52:00,70.3,36.6,30.18,SSE,158,3.8,3.8,29,0.00,,---,0.00,VWS V14.01,2013-02-13 21:52:00,
2013-02-13 13:57:00,70.7,36.9,30.18,South,180,1.3,4.3,29,0.00,,---,0.00,VWS V14.01,2013-02-13 21:57:00,
2013-02-13 14:02:00,70.7,36.9,30.18,SSE,158,0.9,1.1,29,0.00,,---,0.00,VWS V14.01,2013-02-13 22:02:00,
2013-02-13 14:07:00,71.2,37.4,30.18,SSW,202,2.5,2.5,29,0.00,,---,0.00,VWS V14.01,2013-02-13 22:07:00,
2013-02-13 14:12:00,71.2,35.6,30.15,ENE,68,2.5,4.0,27,0.00,,---,0.00,VWS V14.01,2013-02-13 22:12:00,
2013-02-13 14:17:00,71.4,36.7,30.15,South,180,4.0,4.0,28,0.00,,---,0.00,VWS V14.01,2013-02-13 22:17:00,
2013-02-13 14:22:00,72.0,37.1,30.15,ESE,112,3.1,3.6,28,0.00,,---,0.00,VWS V14.01,2013-02-13 22:22:00,
2013-02-13 14:28:00,71.1,36.3,30.15,NNW,338,0.9,2.7,28,0.00,,---,0.00,VWS V14.01,2013-02-13 22:28:00,
2013-02-13 14:33:00,70.9,36.2,30.15,SSW,202,3.8,3.8,28,0.00,,---,0.00,VWS V14.01,2013-02-13 22:33:00,
2013-02-13 14:38:00,70.3,35.7,30.15,ESE,112,0.9,3.8,28,0.00,,---,0.00,VWS V14.01,2013-02-13 22:38:00,
2013-02-13 14:43:00,71.2,37.4,30.15,South,180,2.0,2.5,29,0.00,,---,0.00,VWS V14.01,2013-02-13 22:43:00,
2013-02-13 14:48:00,71.4,35.7,30.15,West,270,1.3,3.8,27,0.00,,---,0.00,VWS V14.01,2013-02-13 22:48:00,
2013-02-13 14:53:00,71.6,36.8,30.15,WSW,248,0.0,1.1,28,0.00,,---,0.00,VWS V14.01,2013-02-13 22:53:00,
2013-02-13 14:58:00,72.1,37.3,30.15,SSE,158,1.3,1.3,28,0.00,,---,0.00,VWS V14.01,2013-02-13 22:58:00,
2013-02-13 15:03:00,71.1,35.4,30.15,SSE,158,2.5,2.5,27,0.00,,---,0.00,VWS V14.01,2013-02-13 23:03:00,
2013-02-13 15:08:00,70.9,36.2,30.15,SE,135,1.3,1.3,28,0.00,,---,0.00,VWS V14.01,2013-02-13 23:08:00,
2013-02-13 15:13:00,71.6,36.8,30.15,South,180,2.7,2.7,28,0.00,,---,0.00,VWS V14.01,2013-02-13 23:13:00,
2013-02-13 15:18:00,71.4,36.7,30.15,SSW,202,3.1,3.1,28,0.00,,---,0.00,VWS V14.01,2013-02-13 23:18:00,
2013-02-13 15:23:00,70.3,35.7,30.15,SSE,158,0.9,1.3,28,0.00,,---,0.00,VWS V14.01,2013-02-13 23:23:00,
2013-02-13 15:28:00,70.2,35.6,30.15,WSW,248,3.1,3.1,28,0.00,,---,0.00,VWS V14.01,2013-02-13 23:28:00,
2013-02-13 15:33:00,70.2,35.6,30.15,South,180,4.3,4.3,28,0.00,,---,0.00,VWS V14.01,2013-02-13 23:33:00,
2013-02-13 15:38:00,69.3,34.8,30.15,East,90,0.0,1.1,28,0.00,,---,0.00,VWS V14.01,2013-02-13 23:38:00,
2013-02-13 15:43:00,69.6,36.0,30.15,SSE,158,2.5,2.5,29,0.00,,---,0.00,VWS V14.01,2013-02-13 23:43:00,
2013-02-13 15:48:00,69.1,35.5,30.15,South,180,1.3,2.0,29,0.00,,---,0.00,VWS V14.01,2013-02-13 23:48:00,
2013-02-13 15:54:00,69.1,35.5,30.15,SE,135,1.6,3.6,29,0.00,,---,0.00,VWS V14.01,2013-02-13 23:54:00,
2013-02-13 15:59:00,68.7,36.1,30.15,East,90,0.0,2.2,30,0.00,,---,0.00,VWS V14.01,2013-02-13 23:59:00,
2013-02-13 16:04:00,68.9,35.4,30.15,NNE,22,1.6,2.9,29,0.00,,---,0.00,VWS V14.01,2013-02-14 00:04:00,
2013-02-13 16:09:00,68.4,34.9,30.15,North,0,1.3,1.3,29,0.00,,---,0.00,VWS V14.01,2013-02-14 00:09:00,
2013-02-13 16:14:00,68.4,35.8,30.15,South,180,0.0,0.0,30,0.00,,---,0.00,VWS V14.01,2013-02-14 00:14:00,
2013-02-13 16:19:00,68.5,35.9,30.15,ESE,112,1.6,1.6,30,0.00,,---,0.00,VWS V14.01,2013-02-14 00:19:00,
2013-02-13 16:24:00,68.0,35.4,30.15,East,90,0.9,0.9,30,0.00,,---,0.00,VWS V14.01,2013-02-14 00:24:00,
2013-02-13 16:29:00,68.2,35.6,30.15,SW,225,0.9,2.0,30,0.00,,---,0.00,VWS V14.01,2013-02-14 00:29:00,
2013-02-13 16:34:00,67.3,35.6,30.15,East,90,2.2,2.2,31,0.00,,---,0.00,VWS V14.01,2013-02-14 00:34:00,
2013-02-13 16:39:00,67.1,35.5,30.15,SSW,202,0.0,0.0,31,0.00,,---,0.00,VWS V14.01,2013-02-14 00:39:00,
2013-02-13 16:44:00,65.8,35.2,30.15,SW,225,2.9,3.1,32,0.00,,---,0.00,VWS V14.01,2013-02-14 00:44:00,
2013-02-13 16:49:00,64.2,34.5,30.15,South,180,0.0,2.0,33,0.00,,---,0.00,VWS V14.01,2013-02-14 00:49:00,
2013-02-13 16:55:00,62.6,33.9,30.15,South,180,0.9,1.3,34,0.00,,---,0.00,VWS V14.01,2013-02-14 00:55:00,
2013-02-13 17:00:00,61.9,33.2,30.15,SSE,158,0.0,0.0,34,0.00,,---,0.00,VWS V14.01,2013-02-14 01:00:00,
2013-02-13 17:05:00,61.0,33.2,30.15,SSE,158,2.7,2.7,35,0.00,,---,0.00,VWS V14.01,2013-02-14 01:05:00,
2013-02-13 17:10:00,60.4,32.7,30.15,South,180,0.0,1.3,35,0.00,,---,0.00,VWS V14.01,2013-02-14 01:10:00,
2013-02-13 17:15:00,59.7,32.7,30.15,SE,135,0.0,0.0,36,0.00,,---,0.00,VWS V14.01,2013-02-14 01:15:00,
2013-02-13 17:20:00,58.6,33.1,30.15,SE,135,0.0,0.0,38,0.00,,---,0.00,VWS V14.01,2013-02-14 01:20:00,
2013-02-13 17:25:00,57.9,32.5,30.15,South,180,0.0,0.0,38,0.00,,---,0.00,VWS V14.01,2013-02-14 01:25:00,
2013-02-13 17:30:00,57.2,33.1,30.15,ESE,112,0.0,0.0,40,0.00,,---,0.00,VWS V14.01,2013-02-14 01:30:00,
2013-02-13 17:35:00,56.5,33.1,30.15,ESE,112,0.0,0.0,41,0.00,,---,0.00,VWS V14.01,2013-02-14 01:35:00,
2013-02-13 17:40:00,55.6,32.9,30.15,ESE,112,0.0,0.0,42,0.00,,---,0.00,VWS V14.01,2013-02-14 01:40:00,
2013-02-13 17:45:00,54.9,33.4,30.15,ESE,112,0.0,0.0,44,0.00,,---,0.00,VWS V14.01,2013-02-14 01:45:00,
2013-02-13 17:50:00,54.3,33.5,30.15,ESE,112,0.0,0.0,45,0.00,,---,0.00,VWS V14.01,2013-02-14 01:50:00,
2013-02-13 17:55:00,53.6,33.3,30.12,ESE,112,0.0,0.0,46,0.00,,---,0.00,VWS V14.01,2013-02-14 01:55:00,
2013-02-13 18:00:00,53.2,33.0,30.12,ESE,112,0.0,0.0,46,0.00,,---,0.00,VWS V14.01,2013-02-14 02:00:00,
2013-02-13 18:05:00,52.5,32.9,30.12,ESE,112,0.0,0.0,47,0.00,,---,0.00,VWS V14.01,2013-02-14 02:05:00,
2013-02-13 18:10:00,52.2,32.6,30.15,ESE,112,0.0,0.0,47,0.00,,---,0.00,VWS V14.01,2013-02-14 02:10:00,
2013-02-13 18:15:00,52.0,32.9,30.15,ESE,112,0.0,0.0,48,0.00,,---,0.00,VWS V14.01,2013-02-14 02:15:00,
2013-02-13 18:20:00,51.4,32.9,30.15,ESE,112,0.0,0.0,49,0.00,,---,0.00,VWS V14.01,2013-02-14 02:20:00,
2013-02-13 18:25:00,51.1,32.6,30.12,ESE,112,0.0,0.0,49,0.00,,---,0.00,VWS V14.01,2013-02-14 02:25:00,
2013-02-13 18:30:00,50.7,32.8,30.12,ESE,112,0.0,0.0,50,0.00,,---,0.00,VWS V14.01,2013-02-14 02:30:00,
2013-02-13 18:35:00,50.9,32.9,30.12,ESE,112,0.0,0.0,50,0.00,,---,0.00,VWS V14.01,2013-02-14 02:35:00,
2013-02-13 18:40:00,50.5,32.6,30.15,ESE,112,0.0,0.0,50,0.00,,---,0.00,VWS V14.01,2013-02-14 02:40:00,
2013-02-13 18:45:00,50.2,32.3,30.15,ESE,112,0.0,0.0,50,0.00,,---,0.00,VWS V14.01,2013-02-14 02:45:00,
2013-02-13 18:50:00,50.2,33.2,30.15,ESE,112,0.0,0.0,52,0.00,,---,0.00,VWS V14.01,2013-02-14 02:50:00,
2013-02-13 18:56:00,50.2,32.8,30.15,ESE,112,0.0,0.0,51,0.00,,---,0.00,VWS V14.01,2013-02-14 02:56:00,
2013-02-13 19:01:00,50.0,33.1,30.15,ESE,112,0.0,0.0,52,0.00,,---,0.00,VWS V14.01,2013-02-14 03:01:00,
2013-02-13 19:06:00,49.8,33.4,30.15,ESE,112,0.0,0.0,53,0.00,,---,0.00,VWS V14.01,2013-02-14 03:06:00,
2013-02-13 19:11:00,49.5,33.1,30.15,ESE,112,0.0,0.0,53,0.00,,---,0.00,VWS V14.01,2013-02-14 03:11:00,
2013-02-13 19:16:00,49.5,33.5,30.15,East,90,0.0,0.0,54,0.00,,---,0.00,VWS V14.01,2013-02-14 03:16:00,
2013-02-13 19:21:00,49.1,33.2,30.15,East,90,0.0,0.0,54,0.00,,---,0.00,VWS V14.01,2013-02-14 03:21:00,
2013-02-13 19:26:00,49.1,33.7,30.15,East,90,0.0,0.0,55,0.00,,---,0.00,VWS V14.01,2013-02-14 03:26:00,
2013-02-13 19:31:00,48.9,33.5,30.15,East,90,0.0,0.0,55,0.00,,---,0.00,VWS V14.01,2013-02-14 03:31:00,
2013-02-13 19:36:00,48.7,33.8,30.15,East,90,0.0,0.0,56,0.00,,---,0.00,VWS V14.01,2013-02-14 03:36:00,
2013-02-13 19:41:00,48.7,33.8,30.15,East,90,0.0,0.0,56,0.00,,---,0.00,VWS V14.01,2013-02-14 03:41:00,
2013-02-13 19:46:00,48.4,33.9,30.15,East,90,0.0,0.0,57,0.00,,---,0.00,VWS V14.01,2013-02-14 03:46:00,
2013-02-13 19:51:00,48.2,33.7,30.15,East,90,0.0,0.0,57,0.00,,---,0.00,VWS V14.01,2013-02-14 03:51:00,
2013-02-13 19:56:00,48.0,34.0,30.15,East,90,0.0,0.0,58,0.00,,---,0.00,VWS V14.01,2013-02-14 03:56:00,
2013-02-13 20:01:00,47.8,34.2,30.15,East,90,0.0,0.0,59,0.00,,---,0.00,VWS V14.01,2013-02-14 04:01:00,
2013-02-13 20:06:00,47.5,33.9,30.15,East,90,0.0,0.0,59,0.00,,---,0.00,VWS V14.01,2013-02-14 04:06:00,
2013-02-13 20:12:00,47.3,34.1,30.18,East,90,0.0,0.0,60,0.00,,---,0.00,VWS V14.01,2013-02-14 04:12:00,
2013-02-13 20:17:00,47.5,34.7,30.18,East,90,0.0,0.0,61,0.00,,---,0.00,VWS V14.01,2013-02-14 04:17:00,
2013-02-13 20:22:00,47.5,34.7,30.18,East,90,0.0,0.0,61,0.00,,---,0.00,VWS V14.01,2013-02-14 04:22:00,
2013-02-13 20:27:00,47.3,34.5,30.15,East,90,0.0,0.0,61,0.00,,---,0.00,VWS V14.01,2013-02-14 04:27:00,
2013-02-13 20:32:00,47.5,35.1,30.15,East,90,0.0,0.0,62,0.00,,---,0.00,VWS V14.01,2013-02-14 04:32:00,
2013-02-13 20:37:00,47.3,35.0,30.15,East,90,0.0,0.0,62,0.00,,---,0.00,VWS V14.01,2013-02-14 04:37:00,
2013-02-13 20:42:00,47.3,35.0,30.15,East,90,0.0,0.0,62,0.00,,---,0.00,VWS V14.01,2013-02-14 04:42:00,
2013-02-13 20:47:00,46.8,35.2,30.15,East,90,0.0,0.0,64,0.00,,---,0.00,VWS V14.01,2013-02-14 04:47:00,
2013-02-13 20:52:00,46.4,34.9,30.15,East,90,0.0,0.0,64,0.00,,---,0.00,VWS V14.01,2013-02-14 04:52:00,
2013-02-13 20:57:00,46.0,34.6,30.18,East,90,0.0,0.0,64,0.00,,---,0.00,VWS V14.01,2013-02-14 04:57:00,
2013-02-13 21:00:00,45.9,34.4,30.18,East,90,0.0,0.0,64,0.00,,---,0.00,VWS V14.01,2013-02-14 05:00:00,
2013-02-13 21:01:00,45.9,34.8,30.18,East,90,0.0,0.0,65,0.00,,---,0.00,VWS V14.01,2013-02-14 05:01:00,
2013-02-13 21:06:00,46.2,35.1,30.18,East,90,0.0,0.0,65,0.00,,---,0.00,VWS V14.01,2013-02-14 05:06:00,
2013-02-13 21:11:00,46.0,35.3,30.15,East,90,0.0,0.0,66,0.00,,---,0.00,VWS V14.01,2013-02-14 05:11:00,
2013-02-13 21:16:00,45.3,34.6,30.15,East,90,0.0,0.0,66,0.00,,---,0.00,VWS V14.01,2013-02-14 05:16:00,
2013-02-13 21:21:00,45.0,34.7,30.15,East,90,0.0,0.0,67,0.00,,---,0.00,VWS V14.01,2013-02-14 05:21:00,
2013-02-13 21:26:00,45.0,34.7,30.18,East,90,0.0,0.0,67,0.00,,---,0.00,VWS V14.01,2013-02-14 05:26:00,
2013-02-13 21:31:00,44.8,34.5,30.18,East,90,0.0,0.0,67,0.00,,---,0.00,VWS V14.01,2013-02-14 05:31:00,
2013-02-13 21:36:00,44.8,34.9,30.18,East,90,0.0,0.0,68,0.00,,---,0.00,VWS V14.01,2013-02-14 05:36:00,
2013-02-13 21:41:00,44.4,34.5,30.18,East,90,0.0,0.0,68,0.00,,---,0.00,VWS V14.01,2013-02-14 05:41:00,
2013-02-13 21:46:00,44.6,35.1,30.18,East,90,0.0,0.0,69,0.00,,---,0.00,VWS V14.01,2013-02-14 05:46:00,
2013-02-13 21:51:00,44.2,34.7,30.18,East,90,0.0,0.0,69,0.00,,---,0.00,VWS V14.01,2013-02-14 05:51:00,
2013-02-13 21:56:00,44.1,34.9,30.18,East,90,0.0,0.0,70,0.00,,---,0.00,VWS V14.01,2013-02-14 05:56:00,
2013-02-13 22:01:00,43.7,34.9,30.18,East,90,0.0,0.0,71,0.00,,---,0.00,VWS V14.01,2013-02-14 06:01:00,
2013-02-13 22:06:00,43.5,34.8,30.18,East,90,0.0,0.0,71,0.00,,---,0.00,VWS V14.01,2013-02-14 06:06:00,
2013-02-13 22:11:00,43.3,34.6,30.18,East,90,0.0,0.0,71,0.00,,---,0.00,VWS V14.01,2013-02-14 06:11:00,
2013-02-13 22:16:00,43.0,34.6,30.18,East,90,0.0,0.0,72,0.00,,---,0.00,VWS V14.01,2013-02-14 06:16:00,
2013-02-13 22:21:00,42.8,34.4,30.18,East,90,0.0,0.0,72,0.00,,---,0.00,VWS V14.01,2013-02-14 06:21:00,
2013-02-13 22:26:00,42.8,34.8,30.18,East,90,0.0,0.0,73,0.00,,---,0.00,VWS V14.01,2013-02-14 06:26:00,
2013-02-13 22:31:00,42.8,35.1,30.18,East,90,0.0,0.0,74,0.00,,---,0.00,VWS V14.01,2013-02-14 06:31:00,
2013-02-13 22:37:00,42.6,34.9,30.18,East,90,0.0,0.0,74,0.00,,---,0.00,VWS V14.01,2013-02-14 06:37:00,
2013-02-13 22:42:00,42.6,34.9,30.18,East,90,0.0,0.0,74,0.00,,---,0.00,VWS V14.01,2013-02-14 06:42:00,
2013-02-13 22:47:00,42.6,34.9,30.18,East,90,0.0,0.0,74,0.00,,---,0.00,VWS V14.01,2013-02-14 06:47:00,
2013-02-13 22:52:00,42.6,35.3,30.18,East,90,0.0,0.0,75,0.00,,---,0.00,VWS V14.01,2013-02-14 06:52:00,
2013-02-13 22:57:00,42.3,34.9,30.21,East,90,0.0,0.0,75,0.00,,---,0.00,VWS V14.01,2013-02-14 06:57:00,
2013-02-13 23:02:00,42.1,35.1,30.21,East,90,0.0,0.0,76,0.00,,---,0.00,VWS V14.01,2013-02-14 07:02:00,
2013-02-13 23:07:00,42.1,35.1,30.21,East,90,0.0,0.0,76,0.00,,---,0.00,VWS V14.01,2013-02-14 07:07:00,
2013-02-13 23:12:00,41.7,34.7,30.21,East,90,0.0,0.0,76,0.00,,---,0.00,VWS V14.01,2013-02-14 07:12:00,
2013-02-13 23:17:00,41.5,34.5,30.21,East,90,0.0,0.0,76,0.00,,---,0.00,VWS V14.01,2013-02-14 07:17:00,
2013-02-13 23:22:00,41.5,34.9,30.21,East,90,0.0,0.0,77,0.00,,---,0.00,VWS V14.01,2013-02-14 07:22:00,
2013-02-13 23:27:00,41.5,34.9,30.21,East,90,0.0,0.0,77,0.00,,---,0.00,VWS V14.01,2013-02-14 07:27:00,
2013-02-13 23:32:00,41.4,35.0,30.21,East,90,0.0,0.0,78,0.00,,---,0.00,VWS V14.01,2013-02-14 07:32:00,
2013-02-13 23:37:00,41.2,34.8,30.21,East,90,0.0,0.0,78,0.00,,---,0.00,VWS V14.01,2013-02-14 07:37:00,
2013-02-13 23:42:00,41.2,34.8,30.21,East,90,0.0,0.0,78,0.00,,---,0.00,VWS V14.01,2013-02-14 07:42:00,
2013-02-13 23:47:00,41.0,35.0,30.21,East,90,0.0,0.0,79,0.00,,---,0.00,VWS V14.01,2013-02-14 07:47:00,
2013-02-13 23:52:00,40.8,35.1,30.21,East,90,0.0,0.0,80,0.00,,---,0.00,VWS V14.01,2013-02-14 07:52:00,
2013-02-13 23:57:00,40.8,35.5,30.21,East,90,0.0,0.0,81,0.00,,---,0.00,VWS V14.01,2013-02-14 07:57:00,